Hovedside
METAR-TAF:

METAR-TAF

Lufthavner :

Tongatapu, Tonga

Fua'amotu internasjonale lufthavn

breddegrad: 21-14S, lengdegrad: 175-09W, høyde over havet: 38 m

Gjeldene værobservasjon

Denne rapporten ble laget for 23 minutter siden, klokken 02:00 UTC
Vind 5 kt fra Sør-sørøst
Temperatur 29°C
Luftfuktighet 70%
Trykk 1012 hPa
Sikt 10 km eller mer
Spredte skyer i en høyde av 1800 ft

METAR: NFTF 220200Z 15005KT 9999 SCT018 29/23 Q1012

Tid: 15:23 (02:23 UTC)

Varsel

Denne rapporten ble laget for 3 timer og 7 minutter siden, klokken 23:16 UTC
Varsel gyldig fra 22. klokken 00 UTC til 22. klokken 24 UTC
Vind 10 kt fra Øst-sørøst
Sikt 10 km eller mer
Spredte skyer i en høyde av 1800 ft

TAF: NFTF 212316Z 2200/2224 12010KT 9999 SCT018

Værobservasjoner og værvarsel for over 4000 flyplasser (METAR- og TAF-rapporter).

Tilgjengelige stasjoner er representert av de røde og gule prikkene på kartet.

Hold musepekeren over prikken for å se navnet på stasjonen.

Klikk så for å se værobservasjoner og -varsler.

For å forandre kartet kan du klikke på den grønne knappen med svart kryss for å zoome inn, på den grønne knappen med strek for å zoome ut, eller på de grønne pilene for å se tilstøtende kart.


METAR-TAF: